sensor_id;sensor_type;location;lat;lon;timestamp;temperature;humidity
21849;DHT22;11089;49.852;19.700;2022-11-20T00:00:41;-2.80;1.00
21849;DHT22;11089;49.852;19.700;2022-11-20T00:03:43;-2.70;1.00
21849;DHT22;11089;49.852;19.700;2022-11-20T00:06:44;-2.70;1.00
21849;DHT22;11089;49.852;19.700;2022-11-20T00:09:45;-2.70;1.00
21849;DHT22;11089;49.852;19.700;2022-11-20T00:12:46;-2.90;1.00
21849;DHT22;11089;49.852;19.700;2022-11-20T00:15:47;-2.80;1.00
21849;DHT22;11089;49.852;19.700;2022-11-20T00:18:48;-2.90;1.00
21849;DHT22;11089;49.852;19.700;2022-11-20T00:21:49;-2.90;1.00
21849;DHT22;11089;49.852;19.700;2022-11-20T00:24:52;-2.80;99.90
21849;DHT22;11089;49.852;19.700;2022-11-20T00:27:52;-2.70;99.90
21849;DHT22;11089;49.852;19.700;2022-11-20T00:31:07;-2.60;99.90
21849;DHT22;11089;49.852;19.700;2022-11-20T00:34:09;-2.50;99.90
21849;DHT22;11089;49.852;19.700;2022-11-20T00:37:10;-2.50;99.90
21849;DHT22;11089;49.852;19.700;2022-11-20T00:40:11;-2.50;99.90
21849;DHT22;11089;49.852;19.700;2022-11-20T00:43:12;-2.50;99.90
21849;DHT22;11089;49.852;19.700;2022-11-20T00:46:16;-2.60;99.90
21849;DHT22;11089;49.852;19.700;2022-11-20T00:49:17;-2.70;99.90
21849;DHT22;11089;49.852;19.700;2022-11-20T00:52:18;-2.80;99.90
21849;DHT22;11089;49.852;19.700;2022-11-20T00:55:19;-2.90;1.00
21849;DHT22;11089;49.852;19.700;2022-11-20T00:58:20;-2.80;1.00
21849;DHT22;11089;49.852;19.700;2022-11-20T01:01:23;-2.70;1.00
21849;DHT22;11089;49.852;19.700;2022-11-20T01:04:25;-2.80;1.00
21849;DHT22;11089;49.852;19.700;2022-11-20T01:07:26;-2.80;1.00
21849;DHT22;11089;49.852;19.700;2022-11-20T01:10:26;-2.80;1.00
21849;DHT22;11089;49.852;19.700;2022-11-20T01:13:28;-2.60;1.00
21849;DHT22;11089;49.852;19.700;2022-11-20T01:16:41;-2.60;1.00
21849;DHT22;11089;49.852;19.700;2022-11-20T01:19:43;-2.50;1.00
21849;DHT22;11089;49.852;19.700;2022-11-20T01:22:44;-2.60;1.00
21849;DHT22;11089;49.852;19.700;2022-11-20T01:25:45;-2.80;1.00
21849;DHT22;11089;49.852;19.700;2022-11-20T01:28:46;-2.80;1.00
21849;DHT22;11089;49.852;19.700;2022-11-20T01:31:48;-2.80;1.00
21849;DHT22;11089;49.852;19.700;2022-11-20T01:34:49;-2.80;1.00
21849;DHT22;11089;49.852;19.700;2022-11-20T01:37:50;-3.00;99.90
21849;DHT22;11089;49.852;19.700;2022-11-20T01:40:55;-2.90;1.00
21849;DHT22;11089;49.852;19.700;2022-11-20T01:43:56;-3.10;99.90
21849;DHT22;11089;49.852;19.700;2022-11-20T01:47:03;-3.00;1.00
21849;DHT22;11089;49.852;19.700;2022-11-20T01:50:14;-3.10;1.00
21849;DHT22;11089;49.852;19.700;2022-11-20T01:53:18;-3.20;1.00
21849;DHT22;11089;49.852;19.700;2022-11-20T01:56:22;-3.30;1.00
21849;DHT22;11089;49.852;19.700;2022-11-20T01:59:23;-3.30;1.00
21849;DHT22;11089;49.852;19.700;2022-11-20T02:02:25;-3.40;1.00
21849;DHT22;11089;49.852;19.700;2022-11-20T02:08:37;-3.40;1.00
21849;DHT22;11089;49.852;19.700;2022-11-20T02:11:38;-3.40;1.00
21849;DHT22;11089;49.852;19.700;2022-11-20T02:14:39;-3.50;1.00
21849;DHT22;11089;49.852;19.700;2022-11-20T02:17:41;-3.60;1.00
21849;DHT22;11089;49.852;19.700;2022-11-20T02:20:46;-3.60;1.00
21849;DHT22;11089;49.852;19.700;2022-11-20T02:27:11;-3.60;1.00
21849;DHT22;11089;49.852;19.700;2022-11-20T02:30:13;-3.60;1.00
21849;DHT22;11089;49.852;19.700;2022-11-20T02:33:14;-3.60;1.00
21849;DHT22;11089;49.852;19.700;2022-11-20T02:36:15;-3.70;1.00
21849;DHT22;11089;49.852;19.700;2022-11-20T02:39:16;-3.70;1.00
21849;DHT22;11089;49.852;19.700;2022-11-20T02:42:18;-3.80;1.00
21849;DHT22;11089;49.852;19.700;2022-11-20T02:45:19;-3.80;1.00
21849;DHT22;11089;49.852;19.700;2022-11-20T02:48:20;-3.80;1.00
21849;DHT22;11089;49.852;19.700;2022-11-20T02:51:22;-3.80;1.00
21849;DHT22;11089;49.852;19.700;2022-11-20T02:54:23;-3.80;1.00
21849;DHT22;11089;49.852;19.700;2022-11-20T02:57:24;-3.90;1.00
21849;DHT22;11089;49.852;19.700;2022-11-20T03:00:25;-4.10;1.00
21849;DHT22;11089;49.852;19.700;2022-11-20T03:03:26;-4.00;1.00
21849;DHT22;11089;49.852;19.700;2022-11-20T03:06:26;-4.00;1.00
21849;DHT22;11089;49.852;19.700;2022-11-20T03:09:27;-4.00;1.00
21849;DHT22;11089;49.852;19.700;2022-11-20T03:12:28;-4.10;1.00
21849;DHT22;11089;49.852;19.700;2022-11-20T03:15:29;-4.10;1.00
21849;DHT22;11089;49.852;19.700;2022-11-20T03:18:30;-4.10;1.00
21849;DHT22;11089;49.852;19.700;2022-11-20T03:21:33;-4.20;1.00
21849;DHT22;11089;49.852;19.700;2022-11-20T03:24:34;-4.20;1.00
21849;DHT22;11089;49.852;19.700;2022-11-20T03:27:35;-4.10;1.00
21849;DHT22;11089;49.852;19.700;2022-11-20T03:30:36;-4.00;99.90
21849;DHT22;11089;49.852;19.700;2022-11-20T03:33:38;-4.20;99.90
21849;DHT22;11089;49.852;19.700;2022-11-20T03:36:40;-4.20;99.90
21849;DHT22;11089;49.852;19.700;2022-11-20T03:39:41;-4.30;99.90
21849;DHT22;11089;49.852;19.700;2022-11-20T03:42:42;-4.40;99.90
21849;DHT22;11089;49.852;19.700;2022-11-20T03:45:45;-4.40;99.90
21849;DHT22;11089;49.852;19.700;2022-11-20T03:48:47;-4.50;99.90
21849;DHT22;11089;49.852;19.700;2022-11-20T03:51:48;-4.60;99.90
21849;DHT22;11089;49.852;19.700;2022-11-20T03:54:49;-4.50;1.00
21849;DHT22;11089;49.852;19.700;2022-11-20T03:57:50;-4.50;99.90
21849;DHT22;11089;49.852;19.700;2022-11-20T04:00:50;-4.50;99.90
21849;DHT22;11089;49.852;19.700;2022-11-20T04:03:53;-4.60;99.90
21849;DHT22;11089;49.852;19.700;2022-11-20T04:06:55;-4.60;99.90
21849;DHT22;11089;49.852;19.700;2022-11-20T04:09:56;-4.60;1.00
21849;DHT22;11089;49.852;19.700;2022-11-20T04:12:57;-4.60;1.00
21849;DHT22;11089;49.852;19.700;2022-11-20T04:15:57;-4.60;1.00
21849;DHT22;11089;49.852;19.700;2022-11-20T04:19:00;-4.50;1.00
21849;DHT22;11089;49.852;19.700;2022-11-20T04:22:01;-4.50;99.90
21849;DHT22;11089;49.852;19.700;2022-11-20T04:25:03;-4.50;99.90
21849;DHT22;11089;49.852;19.700;2022-11-20T04:28:04;-4.50;1.00
21849;DHT22;11089;49.852;19.700;2022-11-20T04:31:16;-4.40;1.00
21849;DHT22;11089;49.852;19.700;2022-11-20T04:34:17;-4.40;1.00
21849;DHT22;11089;49.852;19.700;2022-11-20T04:37:18;-4.40;1.00
21849;DHT22;11089;49.852;19.700;2022-11-20T04:40:19;-4.30;1.00
21849;DHT22;11089;49.852;19.700;2022-11-20T04:43:20;-4.20;99.90
21849;DHT22;11089;49.852;19.700;2022-11-20T04:46:21;-4.30;99.90
21849;DHT22;11089;49.852;19.700;2022-11-20T04:49:22;-4.30;99.90
21849;DHT22;11089;49.852;19.700;2022-11-20T04:52:22;-4.30;99.90
21849;DHT22;11089;49.852;19.700;2022-11-20T04:55:23;-4.40;99.90
21849;DHT22;11089;49.852;19.700;2022-11-20T04:58:24;-4.50;99.90
21849;DHT22;11089;49.852;19.700;2022-11-20T05:01:25;-4.50;99.90
21849;DHT22;11089;49.852;19.700;2022-11-20T05:04:26;-4.50;99.90
21849;DHT22;11089;49.852;19.700;2022-11-20T05:07:27;-4.40;99.90
21849;DHT22;11089;49.852;19.700;2022-11-20T05:10:28;-4.40;1.00
21849;DHT22;11089;49.852;19.700;2022-11-20T05:13:29;-4.30;1.00
21849;DHT22;11089;49.852;19.700;2022-11-20T05:16:30;-4.40;1.00
21849;DHT22;11089;49.852;19.700;2022-11-20T05:19:31;-4.30;1.00
21849;DHT22;11089;49.852;19.700;2022-11-20T05:22:32;-4.40;1.00
21849;DHT22;11089;49.852;19.700;2022-11-20T05:25:33;-4.30;1.00
21849;DHT22;11089;49.852;19.700;2022-11-20T05:28:34;-4.40;99.90
21849;DHT22;11089;49.852;19.700;2022-11-20T05:31:35;-4.40;99.90
21849;DHT22;11089;49.852;19.700;2022-11-20T05:34:36;-4.30;1.00
21849;DHT22;11089;49.852;19.700;2022-11-20T05:37:37;-4.30;1.00
21849;DHT22;11089;49.852;19.700;2022-11-20T05:40:38;-4.20;1.00
21849;DHT22;11089;49.852;19.700;2022-11-20T05:43:41;-4.20;1.00
21849;DHT22;11089;49.852;19.700;2022-11-20T05:46:42;-4.10;1.00
21849;DHT22;11089;49.852;19.700;2022-11-20T05:49:43;-4.00;1.00
21849;DHT22;11089;49.852;19.700;2022-11-20T05:52:44;-4.10;1.00
21849;DHT22;11089;49.852;19.700;2022-11-20T05:55:45;-4.20;1.00
21849;DHT22;11089;49.852;19.700;2022-11-20T05:58:47;-4.20;1.00
21849;DHT22;11089;49.852;19.700;2022-11-20T06:01:48;-4.10;99.90
21849;DHT22;11089;49.852;19.700;2022-11-20T06:04:49;-4.20;99.90
21849;DHT22;11089;49.852;19.700;2022-11-20T06:07:50;-4.20;99.90
21849;DHT22;11089;49.852;19.700;2022-11-20T06:10:51;-4.20;99.90
21849;DHT22;11089;49.852;19.700;2022-11-20T06:13:52;-4.20;99.90
21849;DHT22;11089;49.852;19.700;2022-11-20T06:16:52;-4.30;99.90
21849;DHT22;11089;49.852;19.700;2022-11-20T06:19:53;-4.30;1.00
21849;DHT22;11089;49.852;19.700;2022-11-20T06:22:54;-4.30;1.00
21849;DHT22;11089;49.852;19.700;2022-11-20T06:25:55;-4.30;1.00
21849;DHT22;11089;49.852;19.700;2022-11-20T06:28:56;-4.30;1.00
21849;DHT22;11089;49.852;19.700;2022-11-20T06:31:57;-4.20;1.00
21849;DHT22;11089;49.852;19.700;2022-11-20T06:34:58;-4.10;1.00
21849;DHT22;11089;49.852;19.700;2022-11-20T06:37:59;-4.10;1.00
21849;DHT22;11089;49.852;19.700;2022-11-20T06:41:00;-4.00;1.00
21849;DHT22;11089;49.852;19.700;2022-11-20T06:44:01;-3.90;1.00
21849;DHT22;11089;49.852;19.700;2022-11-20T06:47:02;-3.70;1.00
21849;DHT22;11089;49.852;19.700;2022-11-20T06:50:03;-3.60;1.00
21849;DHT22;11089;49.852;19.700;2022-11-20T06:53:04;-3.60;1.00
21849;DHT22;11089;49.852;19.700;2022-11-20T06:56:07;-3.60;1.00
21849;DHT22;11089;49.852;19.700;2022-11-20T06:59:08;-3.50;1.00
21849;DHT22;11089;49.852;19.700;2022-11-20T07:02:12;-3.40;1.00
21849;DHT22;11089;49.852;19.700;2022-11-20T07:05:13;-3.30;1.00
21849;DHT22;11089;49.852;19.700;2022-11-20T07:08:14;-3.30;1.00
21849;DHT22;11089;49.852;19.700;2022-11-20T07:11:14;-3.20;1.00
21849;DHT22;11089;49.852;19.700;2022-11-20T07:14:15;-3.20;1.00
21849;DHT22;11089;49.852;19.700;2022-11-20T07:17:16;-3.20;1.00
21849;DHT22;11089;49.852;19.700;2022-11-20T07:20:17;-3.20;1.00
21849;DHT22;11089;49.852;19.700;2022-11-20T07:23:18;-3.10;1.00
21849;DHT22;11089;49.852;19.700;2022-11-20T07:26:19;-3.00;99.90
21849;DHT22;11089;49.852;19.700;2022-11-20T07:29:20;-3.10;1.00
21849;DHT22;11089;49.852;19.700;2022-11-20T07:32:21;-3.00;1.00
21849;DHT22;11089;49.852;19.700;2022-11-20T07:35:25;-2.90;1.00
21849;DHT22;11089;49.852;19.700;2022-11-20T07:38:26;-2.80;1.00
21849;DHT22;11089;49.852;19.700;2022-11-20T07:41:28;-2.70;1.00
21849;DHT22;11089;49.852;19.700;2022-11-20T07:44:29;-2.80;1.00
21849;DHT22;11089;49.852;19.700;2022-11-20T07:47:35;-2.70;1.00
21849;DHT22;11089;49.852;19.700;2022-11-20T07:50:36;-2.60;1.00
21849;DHT22;11089;49.852;19.700;2022-11-20T07:53:37;-2.50;1.00
21849;DHT22;11089;49.852;19.700;2022-11-20T07:56:38;-2.40;1.00
21849;DHT22;11089;49.852;19.700;2022-11-20T07:59:39;-2.40;1.00
21849;DHT22;11089;49.852;19.700;2022-11-20T08:02:41;-2.40;1.00
21849;DHT22;11089;49.852;19.700;2022-11-20T08:05:42;-2.40;1.00
21849;DHT22;11089;49.852;19.700;2022-11-20T08:08:43;-2.40;1.00
21849;DHT22;11089;49.852;19.700;2022-11-20T08:11:44;-2.30;1.00
21849;DHT22;11089;49.852;19.700;2022-11-20T08:14:59;-2.30;1.00
21849;DHT22;11089;49.852;19.700;2022-11-20T08:18:05;-2.30;1.00
21849;DHT22;11089;49.852;19.700;2022-11-20T08:21:06;-2.10;1.00
21849;DHT22;11089;49.852;19.700;2022-11-20T08:24:08;-2.20;1.00
21849;DHT22;11089;49.852;19.700;2022-11-20T08:27:09;-2.20;1.00
21849;DHT22;11089;49.852;19.700;2022-11-20T08:30:10;-2.20;99.90
21849;DHT22;11089;49.852;19.700;2022-11-20T08:33:16;-2.10;99.90
21849;DHT22;11089;49.852;19.700;2022-11-20T08:36:19;-2.00;99.90
21849;DHT22;11089;49.852;19.700;2022-11-20T08:39:21;-2.00;1.00
21849;DHT22;11089;49.852;19.700;2022-11-20T08:42:21;-1.90;99.90
21849;DHT22;11089;49.852;19.700;2022-11-20T08:45:22;-1.80;99.90
21849;DHT22;11089;49.852;19.700;2022-11-20T08:48:23;-1.80;99.90
21849;DHT22;11089;49.852;19.700;2022-11-20T08:51:24;-1.80;99.90
21849;DHT22;11089;49.852;19.700;2022-11-20T08:54:25;-1.80;99.90
21849;DHT22;11089;49.852;19.700;2022-11-20T08:57:26;-1.80;1.00
21849;DHT22;11089;49.852;19.700;2022-11-20T09:00:27;-1.90;1.00
21849;DHT22;11089;49.852;19.700;2022-11-20T09:03:28;-1.80;1.00
21849;DHT22;11089;49.852;19.700;2022-11-20T09:06:29;-1.80;1.00
21849;DHT22;11089;49.852;19.700;2022-11-20T09:09:30;-1.70;1.00
21849;DHT22;11089;49.852;19.700;2022-11-20T09:12:31;-1.50;1.00
21849;DHT22;11089;49.852;19.700;2022-11-20T09:15:32;-1.40;1.00
21849;DHT22;11089;49.852;19.700;2022-11-20T09:18:35;-1.30;1.00
21849;DHT22;11089;49.852;19.700;2022-11-20T09:21:39;-1.30;1.00
21849;DHT22;11089;49.852;19.700;2022-11-20T09:24:40;-1.20;1.00
21849;DHT22;11089;49.852;19.700;2022-11-20T09:27:41;-1.10;1.00
21849;DHT22;11089;49.852;19.700;2022-11-20T09:30:44;-1.10;99.90
21849;DHT22;11089;49.852;19.700;2022-11-20T09:33:45;-1.00;99.90
21849;DHT22;11089;49.852;19.700;2022-11-20T09:36:46;-0.90;99.90
21849;DHT22;11089;49.852;19.700;2022-11-20T09:39:47;-0.90;99.90
21849;DHT22;11089;49.852;19.700;2022-11-20T09:46:02;-0.80;99.90
21849;DHT22;11089;49.852;19.700;2022-11-20T09:49:18;-0.80;96.00
21849;DHT22;11089;49.852;19.700;2022-11-20T09:52:32;-0.80;1.00
21849;DHT22;11089;49.852;19.700;2022-11-20T09:55:36;-0.80;1.00
21849;DHT22;11089;49.852;19.700;2022-11-20T09:58:41;-1.00;1.00
21849;DHT22;11089;49.852;19.700;2022-11-20T10:01:44;-0.80;99.90
21849;DHT22;11089;49.852;19.700;2022-11-20T10:08:19;-0.70;99.90
21849;DHT22;11089;49.852;19.700;2022-11-20T10:11:27;-0.60;99.90
21849;DHT22;11089;49.852;19.700;2022-11-20T10:18:07;-0.70;99.90
21849;DHT22;11089;49.852;19.700;2022-11-20T10:21:14;-0.70;1.00
21849;DHT22;11089;49.852;19.700;2022-11-20T10:24:24;-0.80;1.00
21849;DHT22;11089;49.852;19.700;2022-11-20T10:27:55;-0.80;99.90
21849;DHT22;11089;49.852;19.700;2022-11-20T10:31:11;-0.80;99.90
21849;DHT22;11089;49.852;19.700;2022-11-20T10:34:28;-0.80;99.90
21849;DHT22;11089;49.852;19.700;2022-11-20T10:37:32;-0.80;99.90
21849;DHT22;11089;49.852;19.700;2022-11-20T10:40:55;-0.80;99.90
21849;DHT22;11089;49.852;19.700;2022-11-20T10:44:27;-0.90;99.90
21849;DHT22;11089;49.852;19.700;2022-11-20T10:47:42;-0.70;1.00
21849;DHT22;11089;49.852;19.700;2022-11-20T10:54:13;-0.50;99.90
21849;DHT22;11089;49.852;19.700;2022-11-20T11:00:45;-0.50;99.90
21849;DHT22;11089;49.852;19.700;2022-11-20T11:03:46;-0.40;99.90
21849;DHT22;11089;49.852;19.700;2022-11-20T11:06:48;-0.30;99.90
21849;DHT22;11089;49.852;19.700;2022-11-20T11:09:54;-0.20;75.90
21849;DHT22;11089;49.852;19.700;2022-11-20T11:12:56;-0.20;1.00
21849;DHT22;11089;49.852;19.700;2022-11-20T11:15:58;-0.10;1.00
21849;DHT22;11089;49.852;19.700;2022-11-20T11:19:13;-0.10;1.00
21849;DHT22;11089;49.852;19.700;2022-11-20T11:22:17;-0.10;1.00
21849;DHT22;11089;49.852;19.700;2022-11-20T11:28:38;-0.10;99.90
21849;DHT22;11089;49.852;19.700;2022-11-20T11:31:39;0.00;1.00
21849;DHT22;11089;49.852;19.700;2022-11-20T11:34:40;0.10;99.90
21849;DHT22;11089;49.852;19.700;2022-11-20T11:37:41;0.10;1.00
21849;DHT22;11089;49.852;19.700;2022-11-20T11:40:43;0.10;99.90
21849;DHT22;11089;49.852;19.700;2022-11-20T11:43:55;0.20;99.90
21849;DHT22;11089;49.852;19.700;2022-11-20T11:50:49;0.30;63.80
21849;DHT22;11089;49.852;19.700;2022-11-20T11:53:50;0.30;99.90
21849;DHT22;11089;49.852;19.700;2022-11-20T11:56:52;0.40;1.00
21849;DHT22;11089;49.852;19.700;2022-11-20T12:03:20;0.50;99.90
21849;DHT22;11089;49.852;19.700;2022-11-20T12:06:21;0.50;99.90
21849;DHT22;11089;49.852;19.700;2022-11-20T12:09:25;0.50;1.00
21849;DHT22;11089;49.852;19.700;2022-11-20T12:12:37;0.50;99.90
21849;DHT22;11089;49.852;19.700;2022-11-20T12:15:44;0.60;99.90
21849;DHT22;11089;49.852;19.700;2022-11-20T12:18:51;0.60;99.90
21849;DHT22;11089;49.852;19.700;2022-11-20T12:25:24;0.70;99.90
21849;DHT22;11089;49.852;19.700;2022-11-20T12:28:44;0.60;1.00
21849;DHT22;11089;49.852;19.700;2022-11-20T12:42:01;0.70;99.90
21849;DHT22;11089;49.852;19.700;2022-11-20T12:48:37;0.60;99.90
21849;DHT22;11089;49.852;19.700;2022-11-20T12:55:14;0.90;99.90
21849;DHT22;11089;49.852;19.700;2022-11-20T13:01:50;1.00;1.00
21849;DHT22;11089;49.852;19.700;2022-11-20T13:04:59;1.20;1.00
21849;DHT22;11089;49.852;19.700;2022-11-20T13:08:11;1.10;1.00
21849;DHT22;11089;49.852;19.700;2022-11-20T13:15:08;1.20;1.00
21849;DHT22;11089;49.852;19.700;2022-11-20T13:18:14;1.30;1.00
21849;DHT22;11089;49.852;19.700;2022-11-20T13:21:35;1.40;1.00
21849;DHT22;11089;49.852;19.700;2022-11-20T13:24:36;1.50;99.90
21849;DHT22;11089;49.852;19.700;2022-11-20T13:27:46;1.50;15.40
21849;DHT22;11089;49.852;19.700;2022-11-20T13:30:52;1.40;1.00
21849;DHT22;11089;49.852;19.700;2022-11-20T13:33:55;1.30;1.00
21849;DHT22;11089;49.852;19.700;2022-11-20T13:36:58;1.10;99.90
21849;DHT22;11089;49.852;19.700;2022-11-20T13:43:28;1.00;1.00
21849;DHT22;11089;49.852;19.700;2022-11-20T13:46:43;1.10;1.00
21849;DHT22;11089;49.852;19.700;2022-11-20T13:49:45;1.20;1.00
21849;DHT22;11089;49.852;19.700;2022-11-20T13:52:52;1.10;1.00
21849;DHT22;11089;49.852;19.700;2022-11-20T13:56:00;1.00;1.00
21849;DHT22;11089;49.852;19.700;2022-11-20T13:59:16;1.00;54.30
21849;DHT22;11089;49.852;19.700;2022-11-20T14:02:27;0.90;99.90
21849;DHT22;11089;49.852;19.700;2022-11-20T14:05:34;0.90;99.90
21849;DHT22;11089;49.852;19.700;2022-11-20T14:08:40;0.80;99.90
21849;DHT22;11089;49.852;19.700;2022-11-20T14:11:46;0.80;1.00
21849;DHT22;11089;49.852;19.700;2022-11-20T14:14:51;0.70;1.00
21849;DHT22;11089;49.852;19.700;2022-11-20T14:17:52;0.60;1.00
21849;DHT22;11089;49.852;19.700;2022-11-20T14:20:53;0.50;1.00
21849;DHT22;11089;49.852;19.700;2022-11-20T14:24:06;0.50;1.00
21849;DHT22;11089;49.852;19.700;2022-11-20T14:27:16;0.40;1.00
21849;DHT22;11089;49.852;19.700;2022-11-20T14:30:26;0.40;1.00
21849;DHT22;11089;49.852;19.700;2022-11-20T14:33:28;0.30;1.00
21849;DHT22;11089;49.852;19.700;2022-11-20T14:36:29;0.10;1.00
21849;DHT22;11089;49.852;19.700;2022-11-20T14:39:35;0.10;1.00
21849;DHT22;11089;49.852;19.700;2022-11-20T14:42:36;0.10;1.00
21849;DHT22;11089;49.852;19.700;2022-11-20T14:45:38;0.00;1.00
21849;DHT22;11089;49.852;19.700;2022-11-20T14:48:51;-0.10;1.00
21849;DHT22;11089;49.852;19.700;2022-11-20T14:52:00;-0.20;1.00
21849;DHT22;11089;49.852;19.700;2022-11-20T14:55:01;-0.20;1.00
21849;DHT22;11089;49.852;19.700;2022-11-20T14:58:19;-0.30;1.00
21849;DHT22;11089;49.852;19.700;2022-11-20T15:01:26;-0.40;1.00
21849;DHT22;11089;49.852;19.700;2022-11-20T15:04:28;-0.40;1.00
21849;DHT22;11089;49.852;19.700;2022-11-20T15:07:35;-0.50;1.00
21849;DHT22;11089;49.852;19.700;2022-11-20T15:10:36;-0.50;1.00
21849;DHT22;11089;49.852;19.700;2022-11-20T15:13:39;-0.50;1.00
21849;DHT22;11089;49.852;19.700;2022-11-20T15:16:40;-0.50;1.00
21849;DHT22;11089;49.852;19.700;2022-11-20T15:19:41;-0.50;1.00
21849;DHT22;11089;49.852;19.700;2022-11-20T15:22:42;-0.50;1.00
21849;DHT22;11089;49.852;19.700;2022-11-20T15:25:43;-0.50;1.00
21849;DHT22;11089;49.852;19.700;2022-11-20T15:28:46;-0.40;1.00
21849;DHT22;11089;49.852;19.700;2022-11-20T15:31:48;-0.30;1.00
21849;DHT22;11089;49.852;19.700;2022-11-20T15:34:50;-0.30;1.00
21849;DHT22;11089;49.852;19.700;2022-11-20T15:37:51;-0.30;1.00
21849;DHT22;11089;49.852;19.700;2022-11-20T15:40:52;-0.30;1.00
21849;DHT22;11089;49.852;19.700;2022-11-20T15:43:53;-0.30;1.00
21849;DHT22;11089;49.852;19.700;2022-11-20T15:46:54;-0.30;1.00
21849;DHT22;11089;49.852;19.700;2022-11-20T15:49:55;-0.30;1.00
21849;DHT22;11089;49.852;19.700;2022-11-20T15:52:56;-0.30;1.00
21849;DHT22;11089;49.852;19.700;2022-11-20T15:55:56;-0.30;1.00
21849;DHT22;11089;49.852;19.700;2022-11-20T15:58:57;-0.30;1.00
21849;DHT22;11089;49.852;19.700;2022-11-20T16:01:58;-0.20;1.00
21849;DHT22;11089;49.852;19.700;2022-11-20T16:04:59;-0.40;1.00
21849;DHT22;11089;49.852;19.700;2022-11-20T16:08:00;-0.40;11.20
21849;DHT22;11089;49.852;19.700;2022-11-20T16:11:03;-0.20;1.00
21849;DHT22;11089;49.852;19.700;2022-11-20T16:14:05;-0.20;1.00
21849;DHT22;11089;49.852;19.700;2022-11-20T16:17:19;-0.20;1.00
21849;DHT22;11089;49.852;19.700;2022-11-20T16:20:40;-0.20;1.00
21849;DHT22;11089;49.852;19.700;2022-11-20T16:23:42;-0.10;1.00
21849;DHT22;11089;49.852;19.700;2022-11-20T16:26:43;-0.10;1.00
21849;DHT22;11089;49.852;19.700;2022-11-20T16:29:44;-0.20;15.40
21849;DHT22;11089;49.852;19.700;2022-11-20T16:32:45;-0.20;34.40
21849;DHT22;11089;49.852;19.700;2022-11-20T16:35:46;-0.20;39.60
21849;DHT22;11089;49.852;19.700;2022-11-20T16:38:51;-0.10;20.60
21849;DHT22;11089;49.852;19.700;2022-11-20T16:41:52;0.00;1.00
21849;DHT22;11089;49.852;19.700;2022-11-20T16:44:53;0.00;1.00
21849;DHT22;11089;49.852;19.700;2022-11-20T16:47:54;0.00;1.00
21849;DHT22;11089;49.852;19.700;2022-11-20T16:50:54;0.00;1.00
21849;DHT22;11089;49.852;19.700;2022-11-20T16:53:56;0.00;1.00
21849;DHT22;11089;49.852;19.700;2022-11-20T16:56:59;0.00;32.20
21849;DHT22;11089;49.852;19.700;2022-11-20T17:00:01;0.10;65.90
21849;DHT22;11089;49.852;19.700;2022-11-20T17:03:03;0.00;57.50
21849;DHT22;11089;49.852;19.700;2022-11-20T17:06:15;0.00;76.70
21849;DHT22;11089;49.852;19.700;2022-11-20T17:09:16;0.10;90.90
21849;DHT22;11089;49.852;19.700;2022-11-20T17:12:17;0.20;93.20
21849;DHT22;11089;49.852;19.700;2022-11-20T17:15:18;0.30;82.40
21849;DHT22;11089;49.852;19.700;2022-11-20T17:18:19;0.30;90.30
21849;DHT22;11089;49.852;19.700;2022-11-20T17:21:20;0.40;78.10
21849;DHT22;11089;49.852;19.700;2022-11-20T17:24:21;0.30;96.70
21849;DHT22;11089;49.852;19.700;2022-11-20T17:27:22;0.40;89.30
21849;DHT22;11089;49.852;19.700;2022-11-20T17:30:23;0.40;99.90
21849;DHT22;11089;49.852;19.700;2022-11-20T17:33:24;0.50;99.90
21849;DHT22;11089;49.852;19.700;2022-11-20T17:36:26;0.50;99.90
21849;DHT22;11089;49.852;19.700;2022-11-20T17:39:27;0.50;99.90
21849;DHT22;11089;49.852;19.700;2022-11-20T17:42:28;0.50;99.90
21849;DHT22;11089;49.852;19.700;2022-11-20T17:45:29;0.60;99.90
21849;DHT22;11089;49.852;19.700;2022-11-20T17:48:30;0.80;99.90
21849;DHT22;11089;49.852;19.700;2022-11-20T17:51:32;0.80;99.90
21849;DHT22;11089;49.852;19.700;2022-11-20T17:54:34;1.00;99.90
21849;DHT22;11089;49.852;19.700;2022-11-20T17:57:35;0.90;99.90
21849;DHT22;11089;49.852;19.700;2022-11-20T18:00:50;0.90;99.90
21849;DHT22;11089;49.852;19.700;2022-11-20T18:03:51;1.10;99.90
21849;DHT22;11089;49.852;19.700;2022-11-20T18:06:52;1.20;99.90
21849;DHT22;11089;49.852;19.700;2022-11-20T18:09:53;1.30;99.90
21849;DHT22;11089;49.852;19.700;2022-11-20T18:12:54;1.40;95.80
21849;DHT22;11089;49.852;19.700;2022-11-20T18:16:05;1.50;46.60
21849;DHT22;11089;49.852;19.700;2022-11-20T18:19:06;1.50;1.00
21849;DHT22;11089;49.852;19.700;2022-11-20T18:22:08;1.50;1.00
21849;DHT22;11089;49.852;19.700;2022-11-20T18:25:09;1.50;1.00
21849;DHT22;11089;49.852;19.700;2022-11-20T18:28:10;1.40;1.00
21849;DHT22;11089;49.852;19.700;2022-11-20T18:31:11;1.40;1.00
21849;DHT22;11089;49.852;19.700;2022-11-20T18:34:12;1.40;1.00
21849;DHT22;11089;49.852;19.700;2022-11-20T18:37:13;1.20;1.00
21849;DHT22;11089;49.852;19.700;2022-11-20T18:40:16;1.10;1.00
21849;DHT22;11089;49.852;19.700;2022-11-20T18:43:17;0.90;1.00
21849;DHT22;11089;49.852;19.700;2022-11-20T18:46:32;0.80;1.00
21849;DHT22;11089;49.852;19.700;2022-11-20T18:49:34;0.90;1.00
21849;DHT22;11089;49.852;19.700;2022-11-20T18:52:40;1.00;5.70
21849;DHT22;11089;49.852;19.700;2022-11-20T18:55:43;1.10;41.50
21849;DHT22;11089;49.852;19.700;2022-11-20T18:58:44;1.20;37.30
21849;DHT22;11089;49.852;19.700;2022-11-20T19:01:48;1.20;21.80
21849;DHT22;11089;49.852;19.700;2022-11-20T19:04:49;1.30;16.40
21849;DHT22;11089;49.852;19.700;2022-11-20T19:07:50;1.40;1.00
21849;DHT22;11089;49.852;19.700;2022-11-20T19:10:51;1.50;1.00
21849;DHT22;11089;49.852;19.700;2022-11-20T19:13:52;1.50;1.00
21849;DHT22;11089;49.852;19.700;2022-11-20T19:16:53;1.50;1.00
21849;DHT22;11089;49.852;19.700;2022-11-20T19:19:54;1.40;1.00
21849;DHT22;11089;49.852;19.700;2022-11-20T19:22:55;1.40;1.00
21849;DHT22;11089;49.852;19.700;2022-11-20T19:25:58;1.40;1.00
21849;DHT22;11089;49.852;19.700;2022-11-20T19:29:00;1.30;1.00
21849;DHT22;11089;49.852;19.700;2022-11-20T19:32:01;1.30;1.00
21849;DHT22;11089;49.852;19.700;2022-11-20T19:35:04;1.30;1.00
21849;DHT22;11089;49.852;19.700;2022-11-20T19:38:05;1.60;1.00
21849;DHT22;11089;49.852;19.700;2022-11-20T19:41:07;1.60;1.00
21849;DHT22;11089;49.852;19.700;2022-11-20T19:44:13;1.50;1.00
21849;DHT22;11089;49.852;19.700;2022-11-20T19:47:14;1.40;1.00
21849;DHT22;11089;49.852;19.700;2022-11-20T19:50:15;1.40;1.00
21849;DHT22;11089;49.852;19.700;2022-11-20T19:53:16;1.30;1.00
21849;DHT22;11089;49.852;19.700;2022-11-20T19:56:18;1.40;1.00
21849;DHT22;11089;49.852;19.700;2022-11-20T19:59:19;1.50;1.00
21849;DHT22;11089;49.852;19.700;2022-11-20T20:02:20;1.50;1.00
21849;DHT22;11089;49.852;19.700;2022-11-20T20:05:21;1.50;1.00
21849;DHT22;11089;49.852;19.700;2022-11-20T20:08:22;1.50;1.00
21849;DHT22;11089;49.852;19.700;2022-11-20T20:11:25;1.60;1.00
21849;DHT22;11089;49.852;19.700;2022-11-20T20:14:26;1.60;1.00
21849;DHT22;11089;49.852;19.700;2022-11-20T20:17:27;1.70;1.00
21849;DHT22;11089;49.852;19.700;2022-11-20T20:20:28;1.70;1.00